Time;durP1;ratioP1;P1;durP2;ratioP2;P2;SDS_P1;SDS_P2;PMS_P1;PMS_P2;Temp;Humidity;BMP_temperature;BMP_pressure;BME280_temperature;BME280_humidity;BME280_pressure;Samples;Min_cycle;Max_cycle;Signal;HPM_P1;HPM_P2
2022/07/18 00:02:24;;;;;;;27.73;17.83;;;;;;;29.81;77.48;97789.38;5047384;28;20126;-68
2022/07/18 00:05:13;;;;;;;27.58;18.83;;;;;;;29.83;77.81;97793.34;5024990;28;20508;-67
2022/07/18 00:08:02;;;;;;;27.67;18.75;;;;;;;29.82;77.83;97796.47;5024852;28;20045;-68
2022/07/18 00:10:51;;;;;;;27.77;18.30;;;;;;;29.80;77.59;97794.06;5025944;28;20068;-68
2022/07/18 00:13:33;;;;;;;33.95;20.50;;;;;;;29.78;77.75;97790.88;5025491;28;20049;-68
2022/07/18 00:16:23;;;;;;;31.42;20.10;;;;;;;29.65;78.93;97803.22;5008229;28;20041;-67
2022/07/18 00:19:06;;;;;;;30.95;20.27;;;;;;;29.69;78.25;97804.06;5025893;28;20069;-67
2022/07/18 00:22:01;;;;;;;29.88;20.15;;;;;;;29.78;78.44;97801.13;5025559;28;20069;-68
2022/07/18 00:24:40;;;;;;;37.72;22.73;;;;;;;29.82;78.13;97813.88;5025791;28;20152;-67
2022/07/18 00:27:28;;;;;;;33.38;21.38;;;;;;;29.84;77.88;97810.75;5010603;28;20045;-68
2022/07/18 00:30:18;;;;;;;33.95;21.08;;;;;;;29.89;77.48;97815.19;5007719;28;20045;-67
2022/07/18 00:33:07;;;;;;;31.42;21.58;;;;;;;29.91;77.41;97813.66;5034942;28;20059;-67
2022/07/18 00:35:49;;;;;;;35.47;22.95;;;;;;;29.93;77.48;97810.53;5045382;28;20049;-67
2022/07/18 00:38:45;;;;;;;39.00;23.77;;;;;;;29.93;77.86;97814.09;5045924;28;20044;-67
2022/07/18 00:41:34;;;;;;;36.75;22.40;;;;;;;29.97;77.96;97819.69;5045320;28;20044;-67
2022/07/18 00:44:29;;;;;;;33.10;23.23;;;;;;;29.97;78.05;97816.94;5028462;28;20095;-66
2022/07/18 00:47:11;;;;;;;39.40;25.20;;;;;;;30.04;77.35;97825.38;5025711;28;20114;-67
2022/07/18 00:50:03;;;;;;;39.78;25.65;;;;;;;30.04;77.65;97822.63;5024880;28;20461;-67
2022/07/18 00:52:46;;;;;;;38.50;24.73;;;;;;;30.07;77.74;97824.63;5025174;28;20152;-67
2022/07/18 00:55:35;;;;;;;39.13;25.30;;;;;;;30.24;77.39;97818.63;5025434;28;20045;-67
2022/07/18 00:58:17;;;;;;;39.75;24.88;;;;;;;30.34;77.06;97813.72;5025409;28;20073;-66
2022/07/18 01:04:06;;;;;;;41.40;25.48;;;;;;;30.42;76.78;97818.19;5025936;28;20049;-67
2022/07/18 01:06:57;;;;;;;37.65;23.73;;;;;;;30.53;76.46;97821.97;5031597;28;20709;-68
2022/07/18 01:09:39;;;;;;;38.92;25.35;;;;;;;30.56;76.52;97824.00;5025419;28;20053;-66
2022/07/18 01:12:28;;;;;;;35.85;24.58;;;;;;;30.54;76.36;97817.25;5025332;28;20057;-68
2022/07/18 01:15:11;;;;;;;38.45;24.33;;;;;;;30.58;75.87;97829.19;5025571;28;20041;-69
2022/07/18 01:18:00;;;;;;;46.33;25.35;;;;;;;30.60;75.67;97818.53;5007644;28;20535;-67
2022/07/18 01:20:42;;;;;;;34.10;23.00;;;;;;;30.64;75.59;97820.19;5019122;28;20048;-66
2022/07/18 01:23:31;;;;;;;33.75;22.45;;;;;;;30.62;75.48;97828.06;5044679;28;20122;-67
2022/07/18 01:26:15;;;;;;;36.63;22.85;;;;;;;30.74;75.10;97834.59;5046779;28;20067;-67
2022/07/18 01:29:04;;;;;;;41.50;25.20;;;;;;;30.78;74.56;97824.38;5034055;28;20044;-67
2022/07/18 01:31:46;;;;;;;41.67;26.20;;;;;;;30.86;74.32;97839.13;5015897;28;20048;-68
2022/07/18 01:34:35;;;;;;;45.65;28.88;;;;;;;30.87;74.45;97836.00;5041099;28;20476;-67
2022/07/18 01:37:24;;;;;;;63.50;35.80;;;;;;;30.94;74.35;97836.16;5029688;28;20144;-67
2022/07/18 01:40:19;;;;;;;50.20;33.45;;;;;;;31.09;73.94;97837.19;5035378;28;20037;-66
2022/07/18 01:43:07;;;;;;;61.78;35.90;;;;;;;31.13;74.35;97834.47;5060588;28;20048;-68
2022/07/18 01:45:56;;;;;;;52.42;33.55;;;;;;;31.16;74.48;97830.94;5056043;28;20118;-67
2022/07/18 01:48:39;;;;;;;61.38;37.20;;;;;;;31.24;74.86;97838.19;5058136;28;20745;-67
2022/07/18 01:51:28;;;;;;;57.88;36.05;;;;;;;31.35;74.53;97841.94;5067403;28;20072;-67
2022/07/18 01:54:10;;;;;;;62.92;39.03;;;;;;;31.49;74.11;97848.88;5068031;28;20048;-67
2022/07/18 01:56:59;;;;;;;55.40;36.50;;;;;;;31.63;72.90;97849.09;5068343;28;20036;-67
2022/07/18 01:59:48;;;;;;;53.10;34.13;;;;;;;31.84;71.80;97845.81;5067979;28;20123;-67
2022/07/18 02:02:37;;;;;;;54.88;32.67;;;;;;;32.22;70.56;97846.69;5068027;28;20475;-67
2022/07/18 02:05:19;;;;;;;47.60;32.20;;;;;;;32.36;70.18;97841.28;5067260;28;20194;-68
2022/07/18 02:08:09;;;;;;;53.95;34.30;;;;;;;32.59;69.04;97834.81;5068550;28;20153;-68
2022/07/18 02:10:58;;;;;;;52.65;32.72;;;;;;;32.87;67.69;97844.59;5068698;28;20055;-68
2022/07/18 02:13:40;;;;;;;53.17;33.40;;;;;;;33.08;67.05;97846.75;5028466;28;20045;-67
2022/07/18 02:16:29;;;;;;;50.60;32.83;;;;;;;33.38;66.95;97848.56;5010615;28;20137;-68
2022/07/18 02:19:11;;;;;;;44.35;30.75;;;;;;;33.57;67.10;97853.84;5027579;28;20434;-68
2022/07/18 02:22:00;;;;;;;46.00;31.63;;;;;;;33.64;65.71;97848.34;5028288;28;20128;-68
2022/07/18 02:24:42;;;;;;;46.22;30.42;;;;;;;33.86;64.74;97848.44;5028434;28;20053;-68
2022/07/18 02:27:38;;;;;;;51.97;29.98;;;;;;;34.31;63.44;97846.28;5027985;28;20072;-68
2022/07/18 02:30:14;;;;;;;55.33;32.47;;;;;;;34.38;61.98;97846.28;5056106;28;20040;-67
2022/07/18 02:33:08;;;;;;;40.95;27.95;;;;;;;34.66;62.30;97850.31;5067867;28;20048;-68
2022/07/18 02:35:45;;;;;;;35.85;26.35;;;;;;;34.77;61.87;97853.16;5049978;28;20066;-68
2022/07/18 02:38:39;;;;;;;36.35;20.05;;;;;;;35.10;59.23;97852.78;5049661;28;20406;-68
2022/07/18 02:41:34;;;;;;;31.60;19.10;;;;;;;35.30;61.04;97855.16;5067403;28;20044;-67
2022/07/18 02:44:30;;;;;;;22.40;15.98;;;;;;;35.13;58.79;97847.59;5050066;28;20072;-68
2022/07/18 02:47:06;;;;;;;20.35;14.77;;;;;;;35.64;57.26;97857.50;5047337;28;20036;-68
2022/07/18 02:50:00;;;;;;;26.58;17.85;;;;;;;35.47;58.35;97859.13;5048137;28;20044;-68
2022/07/18 02:52:36;;;;;;;28.48;17.90;;;;;;;35.80;58.07;97854.28;5046684;28;20040;-68
2022/07/18 02:55:31;;;;;;;;;;;;;;;35.95;56.17;97847.44;5032705;28;20130;-68
2022/07/18 02:58:07;;;;;;;29.80;17.77;;;;;;;35.97;58.03;97845.03;5047147;28;19928;-68
2022/07/18 03:01:01;;;;;;;25.45;16.13;;;;;;;35.98;55.96;97852.22;5047414;28;20060;-68
2022/07/18 03:03:37;;;;;;;27.30;16.92;;;;;;;36.16;55.80;97851.34;5046083;28;20049;-67
2022/07/18 03:06:25;;;;;;;28.42;18.70;;;;;;;36.37;53.48;97854.06;5046840;28;20148;-68
2022/07/18 03:09:08;;;;;;;30.52;17.88;;;;;;;36.49;54.82;97843.63;5047474;28;20134;-67
2022/07/18 03:11:57;;;;;;;38.28;23.58;;;;;;;36.51;54.22;97850.38;5047125;28;20116;-67
2022/07/18 03:14:38;;;;;;;43.05;25.83;;;;;;;36.52;54.46;97843.59;5013292;28;20375;-68
2022/07/18 03:17:27;;;;;;;42.97;25.33;;;;;;;36.48;55.20;97842.00;5046894;28;20130;-68
2022/07/18 03:20:17;;;;;;;53.58;27.77;;;;;;;36.39;57.19;97843.28;5045872;28;20502;-67
2022/07/18 03:23:16;;;;;;;47.10;28.98;;;;;;;36.33;55.81;97847.69;5034677;28;20483;-67
2022/07/18 03:25:52;;;;;;;34.50;19.35;;;;;;;35.95;54.72;97847.44;5050418;28;20037;-68
2022/07/18 03:28:48;;;;;;;24.83;16.60;;;;;;;36.27;56.63;97854.94;5066231;28;20048;-68
2022/07/18 03:31:24;;;;;;;22.27;15.63;;;;;;;36.42;56.43;97847.22;5067034;28;20051;-67
2022/07/18 03:34:13;;;;;;;32.42;19.63;;;;;;;36.33;54.86;97833.72;5034509;28;20120;-67
2022/07/18 03:37:02;;;;;;;42.30;25.08;;;;;;;36.07;53.66;97846.19;5024689;28;20128;-66
2022/07/18 03:39:57;;;;;;;60.42;30.42;;;;;;;36.20;55.56;97832.59;5046726;28;20080;-67
2022/07/18 03:42:46;;;;;;;56.30;32.15;;;;;;;36.04;54.01;97838.66;5027534;28;20049;-68
2022/07/18 03:45:35;;;;;;;53.45;27.48;;;;;;;36.42;55.23;97834.06;5026268;28;20041;-68
2022/07/18 03:48:25;;;;;;;43.50;25.20;;;;;;;36.00;54.67;97841.47;5025669;28;20052;-70
2022/07/18 03:51:14;;;;;;;30.73;17.83;;;;;;;36.03;55.15;97846.22;5025296;28;20046;-69
2022/07/18 03:53:56;;;;;;;40.92;19.83;;;;;;;36.15;53.00;97841.38;5029171;28;20044;-67
2022/07/18 03:56:45;;;;;;;40.22;21.48;;;;;;;36.28;54.52;97842.53;5035337;28;20053;-67
2022/07/18 03:59:27;;;;;;;39.78;22.02;;;;;;;35.96;52.85;97839.84;5025233;28;20045;-67
2022/07/18 04:02:16;;;;;;;42.22;23.83;;;;;;;36.39;53.16;97825.72;5026186;28;20088;-68
2022/07/18 04:04:58;;;;;;;35.88;20.55;;;;;;;36.89;54.21;97844.16;5025390;28;20699;-68
2022/07/18 04:07:48;;;;;;;38.60;21.70;;;;;;;36.18;53.17;97840.59;5032098;28;20129;-68
2022/07/18 04:10:24;;;;;;;36.28;18.20;;;;;;;36.69;52.19;97836.31;5045892;28;20475;-68
2022/07/18 04:13:12;;;;;;;26.98;16.10;;;;;;;36.36;52.07;97823.72;5050001;28;20478;-68
2022/07/18 04:15:54;;;;;;;26.33;16.35;;;;;;;36.83;52.50;97830.59;5054047;28;20032;-68
2022/07/18 04:18:49;;;;;;;28.17;14.75;;;;;;;37.02;51.95;97832.06;5053001;28;20055;-68
2022/07/18 04:21:25;;;;;;;23.10;12.45;;;;;;;36.78;50.19;97822.69;5046447;28;20044;-65
2022/07/18 04:24:20;;;;;;;17.63;10.35;;;;;;;36.82;51.54;97829.03;5044531;28;20052;-66
2022/07/18 04:26:57;;;;;;;11.98;9.13;;;;;;;36.91;49.59;97825.75;5036604;28;20110;-67
2022/07/18 04:29:51;;;;;;;18.17;9.45;;;;;;;36.93;50.13;97819.75;5044722;28;20049;-66
2022/07/18 04:32:27;;;;;;;13.32;9.18;;;;;;;36.74;51.33;97819.09;5045376;28;20399;-66
2022/07/18 04:35:15;;;;;;;20.65;9.20;;;;;;;37.29;50.84;97805.47;5028368;28;20156;-66
2022/07/18 04:38:04;;;;;;;14.88;8.18;;;;;;;37.37;50.74;97802.16;5045717;28;20047;-67
2022/07/18 04:40:52;;;;;;;18.63;8.13;;;;;;;36.91;51.03;97808.97;5029210;28;20053;-66
2022/07/18 04:43:48;;;;;;;13.80;7.97;;;;;;;36.75;50.15;97806.72;5048125;28;20106;-67
2022/07/18 04:46:36;;;;;;;12.30;7.88;;;;;;;36.76;53.36;97808.28;5047690;28;20159;-66
2022/07/18 04:49:18;;;;;;;15.95;7.35;;;;;;;36.94;51.50;97801.78;5065195;28;20036;-66
2022/07/18 04:52:13;;;;;;;11.20;8.73;;;;;;;36.99;49.96;97804.09;5036831;28;20045;-66
2022/07/18 04:54:50;;;;;;;16.77;8.27;;;;;;;37.36;51.25;97805.41;5041384;28;20037;-66
2022/07/18 04:57:39;;;;;;;11.25;7.03;;;;;;;37.74;52.94;97808.19;5038534;28;20136;-66
2022/07/18 05:00:30;;;;;;;11.07;8.20;;;;;;;36.61;50.76;97799.22;5034798;28;20041;-67
2022/07/18 05:03:14;;;;;;;13.98;7.28;;;;;;;37.42;51.46;97803.72;5032555;28;20045;-67
2022/07/18 05:06:03;;;;;;;10.90;7.47;;;;;;;37.14;50.39;97800.00;5038331;28;20052;-67
2022/07/18 05:08:45;;;;;;;17.30;8.43;;;;;;;37.52;50.71;97797.22;5044551;28;20098;-66
2022/07/18 05:11:34;;;;;;;13.38;7.60;;;;;;;37.79;51.57;97793.72;5023910;28;20805;-67
2022/07/18 05:14:16;;;;;;;15.85;7.43;;;;;;;37.81;53.81;97788.50;5044096;28;20102;-66
2022/07/18 05:17:05;;;;;;;12.60;7.95;;;;;;;37.82;50.66;97784.50;5030987;28;20083;-65
2022/07/18 05:19:54;;;;;;;15.82;8.45;;;;;;;;;;5063034;28;20045;-65
2022/07/18 05:22:43;;;;;;;11.35;7.85;;;;;;;;;;5040252;28;20045;-65
2022/07/18 05:25:38;;;;;;;17.92;8.85;;;;;;;;;;5040547;28;20042;-65
2022/07/18 05:28:13;;;;;;;17.55;7.35;;;;;;;;;;5063524;28;20511;-64
2022/07/18 05:31:02;;;;;;;17.00;7.93;;;;;;;;;;5032722;28;20076;-64
2022/07/18 05:33:43;;;;;;;11.88;7.72;;;;;;;;;;5039775;28;20049;-64
2022/07/18 05:36:32;;;;;;;11.85;7.53;;;;;;;;;;5013164;28;20449;-65
2022/07/18 05:39:17;;;;;;;16.02;8.23;;;;;;;;;;5035069;28;20059;-66
2022/07/18 05:42:12;;;;;;;9.68;7.47;;;;;;;;;;5034387;28;20072;-64
2022/07/18 05:45:28;;;;;;;10.38;7.30;;;;;;;;;;5045622;28;20255;-66
2022/07/18 05:48:17;;;;;;;18.30;7.63;;;;;;;;;;5036042;28;20136;-65
2022/07/18 05:51:00;;;;;;;15.23;7.50;;;;;;;;;;5045499;28;20068;-64
2022/07/18 05:53:48;;;;;;;12.68;6.88;;;;;;;;;;5040529;28;20124;-69
2022/07/18 05:56:30;;;;;;;11.80;6.83;;;;;;;;;;5037844;28;20423;-66
2022/07/18 05:59:19;;;;;;;13.80;8.20;;;;;;;;;;5040815;28;20343;-66
2022/07/18 06:02:01;;;;;;;12.00;7.47;;;;;;;;;;5036013;28;20049;-65
2022/07/18 06:04:50;;;;;;;17.60;6.90;;;;;;;;;;5062671;28;20136;-66
2022/07/18 06:07:51;;;;;;;14.60;6.95;;;;;;;;;;5064685;28;20379;-66
2022/07/18 06:10:40;;;;;;;9.88;7.10;;;;;;;;;;5065166;28;20167;-66
2022/07/18 06:13:26;;;;;;;10.05;7.15;;;;;;;;;;5062583;28;20122;-66
2022/07/18 06:16:15;;;;;;;12.25;7.93;;;;;;;;;;5048178;28;20115;-65
2022/07/18 06:18:56;;;;;;;10.40;7.75;;;;;;;;;;5048681;28;20515;-65
2022/07/18 06:21:45;;;;;;;11.50;8.02;;;;;;;;;;5033292;28;20720;-67
2022/07/18 06:24:34;;;;;;;12.52;7.95;;;;;;;;;;5048468;28;20074;-66
2022/07/18 06:27:16;;;;;;;9.98;7.90;;;;;;;;;;5047580;28;20498;-67
2022/07/18 06:30:04;;;;;;;12.73;7.90;;;;;;;;;;5035520;28;20128;-67
2022/07/18 06:32:53;;;;;;;12.75;8.32;;;;;;;;;;5048685;28;20044;-67
2022/07/18 06:35:34;;;;;;;10.98;7.63;;;;;;;;;;5037792;28;20124;-66
2022/07/18 06:38:23;;;;;;;13.18;8.93;;;;;;;;;;5047045;28;20041;-68
2022/07/18 06:41:05;;;;;;;15.88;9.73;;;;;;;;;;5050026;28;20467;-67
2022/07/18 06:44:00;;;;;;;11.93;7.95;;;;;;;;;;5035904;28;20060;-67
2022/07/18 06:46:36;;;;;;;13.60;7.97;;;;;;;;;;5046488;28;20041;-67
2022/07/18 06:49:25;;;;;;;13.43;7.68;;;;;;;;;;5048307;28;20171;-67
2022/07/18 06:52:07;;;;;;;;;;;;;;;;;;5047731;28;20048;-66
2022/07/18 06:54:55;;;;;;;12.20;7.80;;;;;;;;;;5047711;28;19960;-67
2022/07/18 06:57:37;;;;;;;13.57;7.73;;;;;;;;;;5047512;28;20329;-67
2022/07/18 07:00:26;;;;;;;13.13;8.27;;;;;;;;;;5046828;28;20053;-67
2022/07/18 07:03:15;;;;;;;16.45;8.70;;;;;;;;;;5047277;28;20037;-67
2022/07/18 07:05:57;;;;;;;24.70;9.13;;;;;;;;;;5046789;28;20067;-67
2022/07/18 07:08:45;;;;;;;11.88;8.40;;;;;;;;;;5047128;28;20468;-67
2022/07/18 07:11:27;;;;;;;14.27;8.48;;;;;;;;;;5047541;28;20055;-68
2022/07/18 07:14:15;;;;;;;13.73;8.23;;;;;;;;;;5047361;28;20676;-67
2022/07/18 07:16:57;;;;;;;11.88;6.68;;;;;;;;;;5047025;28;20057;-67
2022/07/18 07:19:45;;;;;;;13.27;7.10;;;;;;;;;;5044986;28;20095;-68
2022/07/18 07:22:27;;;;;;;12.50;7.45;;;;;;;;;;5046766;28;20140;-67
2022/07/18 07:25:15;;;;;;;11.15;7.68;;;;;;;;;;5044035;28;20049;-68
2022/07/18 07:27:57;;;;;;;21.70;10.57;;;;;;;;;;5045458;28;20052;-70
2022/07/18 07:30:45;;;;;;;12.77;8.32;;;;;;;;;;5043778;28;20044;-69
2022/07/18 07:33:26;;;;;;;12.13;7.65;;;;;;;;;;5045581;28;20080;-70
2022/07/18 07:36:15;;;;;;;10.80;7.43;;;;;;;;;;5040210;28;20072;-69
2022/07/18 07:38:57;;;;;;;7.03;6.22;;;;;;;;;;5046829;28;20051;-69
2022/07/18 07:41:45;;;;;;;9.02;7.20;;;;;;;;;;5043419;28;20053;-69
2022/07/18 07:44:40;;;;;;;11.85;7.55;;;;;;;;;;5044696;28;20383;-69
2022/07/18 07:47:15;;;;;;;10.63;6.97;;;;;;;;;;5037463;28;20044;-70
2022/07/18 07:50:05;;;;;;;12.85;6.32;;;;;;;;;;5034994;28;20061;-69
2022/07/18 07:52:54;;;;;;;8.15;6.22;;;;;;;;;;5025110;28;20045;-71
2022/07/18 07:55:36;;;;;;;9.05;6.72;;;;;;;;;;5020726;28;20136;-68
2022/07/18 07:58:25;;;;;;;11.52;6.90;;;;;;;;;;5037494;28;20144;-69
2022/07/18 08:01:07;;;;;;;9.70;7.40;;;;;;;;;;5036869;28;20053;-68
2022/07/18 08:03:55;;;;;;;13.20;8.40;;;;;;;;;;5026405;28;20060;-68
2022/07/18 08:06:37;;;;;;;12.70;7.82;;;;;;;;;;5026081;28;20115;-69
2022/07/18 08:09:25;;;;;;;10.98;7.05;;;;;;;;;;5056272;28;20676;-69
2022/07/18 08:12:07;;;;;;;12.07;7.53;;;;;;;;;;5024431;28;20052;-69
2022/07/18 08:14:55;;;;;;;11.30;7.13;;;;;;;;;;5060203;28;20041;-68
2022/07/18 08:17:44;;;;;;;11.88;7.38;;;;;;;;;;5036251;28;20128;-69
2022/07/18 08:20:33;;;;;;;8.15;6.80;;;;;;;;;;5031800;28;20038;-69
2022/07/18 08:23:28;;;;;;;8.50;6.95;;;;;;;;;;5064249;28;20055;-68
2022/07/18 08:26:03;;;;;;;12.18;7.75;;;;;;;;;;5041862;28;20110;-69
2022/07/18 08:28:52;;;;;;;9.75;7.40;;;;;;;;;;5028906;28;20110;-68
2022/07/18 08:31:41;;;;;;;11.40;8.32;;;;;;;;;;5008806;28;20128;-69
2022/07/18 08:34:23;;;;;;;14.75;8.25;;;;;;;;;;5038054;28;20041;-69
2022/07/18 08:37:10;;;;;;;9.52;7.88;;;;;;;;;;5046209;28;20044;-69
2022/07/18 08:39:52;;;;;;;11.82;7.80;;;;;;;;;;5065810;28;20114;-69
2022/07/18 08:42:41;;;;;;;10.50;7.55;;;;;;;;;;5059411;28;20588;-68
2022/07/18 08:45:57;;;;;;;10.70;8.50;;;;;;;;;;5025336;28;20132;-70
2022/07/18 08:48:46;;;;;;;9.15;8.25;;;;;;;;;;5026367;28;20118;-69
2022/07/18 08:51:34;;;;;;;12.63;8.68;;;;;;;;;;5026951;28;20115;-69
2022/07/18 08:54:16;;;;;;;15.68;8.52;;;;;;;;;;5026576;28;20042;-70
2022/07/18 08:57:03;;;;;;;15.15;7.85;;;;;;;;;;5027356;28;20144;-68
2022/07/18 08:59:45;;;;;;;12.48;8.00;;;;;;;;;;5026892;28;20460;-69
2022/07/18 09:02:33;;;;;;;12.48;9.07;;;;;;;;;;5025076;28;20045;-69
2022/07/18 09:05:28;;;;;;;10.57;7.93;;;;;;;;;;5023323;28;20045;-69
2022/07/18 09:08:19;;;;;;;15.27;8.57;;;;;;;;;;5024523;28;20428;-70
2022/07/18 09:11:11;;;;;;;12.50;9.05;;;;;;;;;;5023040;28;20554;-68
2022/07/18 09:14:13;;;;;;;13.55;8.50;;;;;;;;;;5019652;28;20050;-70
2022/07/18 09:17:10;;;;;;;13.23;9.32;;;;;;;;;;5024392;28;20060;-69
2022/07/18 09:19:58;;;;;;;10.75;8.85;;;;;;;;;;5023514;28;20053;-69
2022/07/18 09:22:53;;;;;;;11.38;9.23;;;;;;;;;;5024828;28;20149;-68
2022/07/18 09:25:32;;;;;;;11.55;8.60;;;;;;;;;;5024114;28;20384;-70
2022/07/18 09:28:27;;;;;;;12.55;7.53;;;;;;;;;;5021881;28;20131;-69
2022/07/18 09:31:16;;;;;;;10.90;9.07;;;;;;;;;;4992902;28;20045;-69
2022/07/18 09:34:07;;;;;;;17.15;9.80;;;;;;;;;;5006015;28;20053;-69
2022/07/18 09:37:02;;;;;;;16.25;10.93;;;;;;;;;;5023314;28;20665;-68
2022/07/18 09:39:46;;;;;;;12.65;9.18;;;;;;;;;;5024584;28;20480;-69
2022/07/18 09:42:34;;;;;;;13.80;8.38;;;;;;;;;;5023498;28;20756;-68
2022/07/18 09:45:23;;;;;;;12.05;8.60;;;;;;;;;;5038571;28;20049;-69
2022/07/18 09:48:13;;;;;;;24.45;10.48;;;;;;;;;;5047650;28;20045;-69
2022/07/18 09:51:13;;;;;;;11.07;8.55;;;;;;;;;;5026277;28;20044;-68
2022/07/18 09:54:02;;;;;;;11.65;8.50;;;;;;;;;;5045332;28;20068;-70
2022/07/18 09:56:44;;;;;;;9.55;8.60;;;;;;;;;;5045153;28;20137;-70
2022/07/18 09:59:34;;;;;;;11.40;8.98;;;;;;;;;;5046900;28;20056;-69
2022/07/18 10:02:16;;;;;;;10.38;9.10;;;;;;;;;;5047186;28;20056;-70
2022/07/18 10:05:05;;;;;;;9.57;8.57;;;;;;;;;;5047699;28;20052;-70
2022/07/18 10:07:54;;;;;;;11.73;9.32;;;;;;;;;;5046396;28;20468;-70
2022/07/18 10:10:36;;;;;;;13.50;9.43;;;;;;;;;;5047192;28;20053;-69
2022/07/18 10:13:26;;;;;;;12.15;9.60;;;;;;;;;;5044479;28;20045;-69
2022/07/18 10:16:15;;;;;;;13.10;9.50;;;;;;;;;;5042690;28;21426;-69
2022/07/18 10:18:59;;;;;;;16.02;9.15;;;;;;;;;;5049462;28;20053;-68
2022/07/18 10:21:48;;;;;;;13.13;9.07;;;;;;;;;;5018365;28;20059;-69
2022/07/18 10:24:30;;;;;;;9.88;8.75;;;;;;;;;;5047351;28;20483;-69
2022/07/18 10:27:20;;;;;;;14.82;9.10;;;;;;;;;;5049828;28;20354;-69
2022/07/18 10:30:19;;;;;;;10.32;8.07;;;;;;;;;;5048274;28;20471;-69
2022/07/18 10:33:25;;;;;;;12.93;8.23;;;;;;;;;;5048876;28;20083;-69
2022/07/18 10:36:09;;;;;;;10.75;8.35;;;;;;;;;;5047092;28;20590;-68
2022/07/18 10:39:25;;;;;;;20.27;9.23;;;;;;;;;;5041320;28;20052;-68
2022/07/18 10:42:26;;;;;;;10.05;8.30;;;;;;;;;;4998156;28;20510;-68
2022/07/18 10:45:34;;;;;;;10.65;8.93;;;;;;;;;;4998257;28;20491;-68
2022/07/18 10:48:41;;;;;;;10.07;8.82;;;;;;;;;;5027688;28;20052;-69
2022/07/18 10:51:28;;;;;;;11.98;8.45;;;;;;;;;;4839947;28;10001293;-69
2022/07/18 10:54:24;;;;;;;11.50;7.97;;;;;;;;;;5020818;28;20354;-67
2022/07/18 10:56:59;;;;;;;14.88;8.85;;;;;;;;;;5009740;28;20074;-68
2022/07/18 11:00:10;;;;;;;11.40;8.45;;;;;;;;;;5022865;28;20601;-69
2022/07/18 11:03:03;;;;;;;16.15;8.80;;;;;;;;;;5026241;28;20095;-69
2022/07/18 11:05:59;;;;;;;14.98;8.95;;;;;;;;;;5025564;28;20056;-68
2022/07/18 11:08:34;;;;;;;16.95;9.00;;;;;;;;;;5023998;28;20150;-70
2022/07/18 11:11:29;;;;;;;14.05;8.98;;;;;;;;;;4976675;28;20083;-69
2022/07/18 11:14:05;;;;;;;13.13;8.93;;;;;;;;;;5024344;28;20509;-70
2022/07/18 11:17:12;;;;;;;13.15;9.25;;;;;;;;;;5020977;28;20354;-70
2022/07/18 11:20:24;;;;;;;13.23;9.00;;;;;;;;;;5023694;28;20056;-69
2022/07/18 11:23:21;;;;;;;12.27;8.98;;;;;;;;;;5023074;28;20388;-68
2022/07/18 11:25:57;;;;;;;17.67;8.85;;;;;;;;;;5006509;28;20108;-69
2022/07/18 11:28:46;;;;;;;11.10;8.88;;;;;;;;;;5022818;28;20111;-69
2022/07/18 11:31:28;;;;;;;14.07;10.45;;;;;;;;;;5022809;28;20127;-68
2022/07/18 11:34:17;;;;;;;19.73;9.68;;;;;;;;;;5005204;28;20045;-69
2022/07/18 11:37:18;;;;;;;17.52;9.90;;;;;;;;;;5020665;28;20480;-69
2022/07/18 11:40:14;;;;;;;11.07;9.15;;;;;;;;;;5012918;28;20073;-68
2022/07/18 11:42:56;;;;;;;11.90;9.32;;;;;;;;;;5018219;28;20132;-68
2022/07/18 11:45:51;;;;;;;19.05;9.90;;;;;;;;;;4993350;28;20620;-69
2022/07/18 11:48:47;;;;;;;12.00;9.52;;;;;;;;;;5019706;28;20116;-70
2022/07/18 11:51:36;;;;;;;12.48;9.88;;;;;;;;;;5033503;28;20048;-68
2022/07/18 11:54:32;;;;;;;13.18;9.90;;;;;;;;;;5031545;28;20366;-67
2022/07/18 11:57:25;;;;;;;15.35;9.70;;;;;;;;;;5025128;28;20645;-67
2022/07/18 12:00:20;;;;;;;13.32;10.18;;;;;;;;;;5024171;28;20392;-67
2022/07/18 12:03:15;;;;;;;15.25;10.20;;;;;;;;;;5026028;28;20552;-69
2022/07/18 12:05:52;;;;;;;20.05;10.25;;;;;;;;;;5026449;28;20045;-68
2022/07/18 12:08:47;;;;;;;16.65;10.60;;;;;;;;;;5039507;28;20118;-68
2022/07/18 12:11:39;;;;;;;18.03;10.93;;;;;;;;;;4692869;28;9999813;-69
2022/07/18 12:14:41;;;;;;;17.05;11.02;;;;;;;;;;5027944;28;20041;-68
2022/07/18 12:17:30;;;;;;;18.52;10.50;;;;;;;;;;5045039;28;20772;-67
2022/07/18 12:20:19;;;;;;;14.77;10.75;;;;;;;;;;5044066;28;20425;-67
2022/07/18 12:23:14;;;;;;;14.35;10.95;;;;;;;;;;5050448;28;20515;-68
2022/07/18 12:25:57;;;;;;;22.90;11.25;;;;;;;;;;5065349;28;20613;-66
2022/07/18 12:28:44;;;;;;;16.60;10.52;;;;;;;;;;5035202;28;20037;-68
2022/07/18 12:31:45;;;;;;;20.98;11.43;;;;;;;;;;5026367;28;20425;-67
2022/07/18 12:34:33;;;;;;;29.75;12.88;;;;;;;;;;5030270;28;20553;-67
2022/07/18 12:37:25;;;;;;;22.88;11.02;;;;;;;;;;5029870;28;20049;-67
2022/07/18 12:40:17;;;;;;;18.20;10.63;;;;;;;;;;5045882;28;20045;-68
2022/07/18 12:43:10;;;;;;;18.23;10.50;;;;;;;;;;5045252;28;20048;-69
2022/07/18 12:45:59;;;;;;;16.08;10.70;;;;;;;;;;5030438;28;20053;-69
2022/07/18 12:48:47;;;;;;;14.45;9.93;;;;;;;;;;5032485;28;20581;-69
2022/07/18 12:51:42;;;;;;;15.65;10.43;;;;;;;;;;5060050;28;20131;-66
2022/07/18 12:54:31;;;;;;;14.63;10.52;;;;;;;;;;5044492;28;20056;-69
2022/07/18 12:57:20;;;;;;;19.98;13.70;;;;;;;;;;5009857;28;20045;-68
2022/07/18 13:00:03;;;;;;;20.73;14.85;;;;;;;;;;5008496;28;20045;-68
2022/07/18 13:02:55;;;;;;;16.65;13.27;;;;;;;;;;5011910;28;20052;-69
2022/07/18 13:05:50;;;;;;;18.45;11.98;;;;;;;;;;5032012;28;20128;-70
2022/07/18 13:08:27;;;;;;;14.50;11.95;;;;;;;;;;5036401;28;20048;-69
2022/07/18 13:11:16;;;;;;;18.60;12.18;;;;;;;;;;5033894;28;20110;-68
2022/07/18 13:14:11;;;;;;;17.08;12.00;;;;;;;;;;5039108;28;20148;-69
2022/07/18 13:16:54;;;;;;;20.00;11.85;;;;;;;;;;5047513;28;20055;-67
2022/07/18 13:19:44;;;;;;;18.92;12.18;;;;;;;;;;5046830;28;20471;-68
2022/07/18 13:22:37;;;;;;;17.58;12.77;;;;;;;;;;5069946;28;20828;-66
2022/07/18 13:25:18;;;;;;;23.40;14.05;;;;;;;;;;5053827;28;20118;-67
2022/07/18 13:28:07;;;;;;;20.98;15.45;;;;;;;;;;5064373;28;20141;-67
2022/07/18 13:30:48;;;;;;;24.08;15.02;;;;;;;;;;5038639;28;20049;-68
2022/07/18 13:33:37;;;;;;;19.52;14.30;;;;;;;;;;5028610;28;20135;-66
2022/07/18 13:36:29;;;;;;;19.95;13.73;;;;;;;;;;5028954;28;20156;-67
2022/07/18 13:39:10;;;;;;;18.83;13.20;;;;;;;;;;5028127;28;20060;-68
2022/07/18 13:42:02;;;;;;;20.73;14.25;;;;;;;;;;5061612;28;20044;-68
2022/07/18 13:44:46;;;;;;;22.10;13.85;;;;;;;;;;5033888;28;20060;-71
2022/07/18 13:47:35;;;;;;;18.35;14.70;;;;;;;;;;5029709;28;20753;-70
2022/07/18 13:50:17;;;;;;;25.23;14.93;;;;;;;;;;5041644;28;20071;-70
2022/07/18 13:53:13;;;;;;;19.48;14.95;;;;;;;;;;5034372;28;20122;-69
2022/07/18 13:56:02;;;;;;;26.08;14.65;;;;;;;;;;5039028;28;20041;-68
2022/07/18 13:58:50;;;;;;;26.00;15.50;;;;;;;;;;5021256;28;20052;-69
2022/07/18 14:01:32;;;;;;;18.80;14.47;;;;;;;;;;4679585;28;10000158;-69
2022/07/18 14:04:20;;;;;;;25.80;15.00;;;;;;;;;;4693052;28;9999924;-68
2022/07/18 14:07:02;;;;;;;23.08;15.10;;;;;;;;;;5013684;28;20049;-70
2022/07/18 14:09:51;;;;;;;24.52;14.80;;;;;;;;;;5014455;28;20517;-70
2022/07/18 14:12:40;;;;;;;26.13;14.73;;;;;;;;;;5041953;28;20543;-69
2022/07/18 14:15:29;;;;;;;29.77;14.50;;;;;;;;;;5045289;28;20500;-70
2022/07/18 14:18:11;;;;;;;23.65;14.13;;;;;;;;;;5045096;28;20048;-71
2022/07/18 14:20:59;;;;;;;18.85;14.52;;;;;;;;;;5030014;28;20076;-70
2022/07/18 14:23:41;;;;;;;22.23;14.77;;;;;;;;;;5032718;28;20566;-70
2022/07/18 14:26:29;;;;;;;19.10;14.35;;;;;;;;;;5018403;28;20049;-71
2022/07/18 14:29:11;;;;;;;24.35;13.65;;;;;;;;;;5027536;28;20127;-71
2022/07/18 14:31:58;;;;;;;25.33;13.68;;;;;;;;;;5051725;28;20056;-71
2022/07/18 14:34:47;;;;;;;16.00;13.25;;;;;;;;;;5047994;28;20040;-71
2022/07/18 14:37:35;;;;;;;22.77;14.38;;;;;;;;;;5028286;28;20671;-71
2022/07/18 14:40:17;;;;;;;18.02;13.43;;;;;;;;;;5058736;28;20044;-70
2022/07/18 14:43:05;;;;;;;19.25;14.00;;;;;;;;;;5063257;28;20052;-70
2022/07/18 14:45:54;;;;;;;20.67;13.30;;;;;;;;;;5033229;28;20138;-70
2022/07/18 14:48:43;;;;;;;26.08;13.80;;;;;;;;;;5028547;28;20152;-71
2022/07/18 14:51:38;;;;;;;17.23;13.70;;;;;;;;;;5028225;28;20404;-70
2022/07/18 14:54:40;;;;;;;22.33;14.27;;;;;;;;;;5007619;28;20061;-70
2022/07/18 14:57:29;;;;;;;21.15;13.73;;;;;;;;;;4990148;28;20046;-69
2022/07/18 15:00:18;;;;;;;23.20;13.20;;;;;;;;;;5008232;28;20062;-70
2022/07/18 15:03:00;;;;;;;26.70;13.55;;;;;;;;;;5008041;28;20042;-70
2022/07/18 15:06:08;;;;;;;20.80;13.23;;;;;;;;;;5012803;28;20550;-69